Time;durP1;ratioP1;P1;durP2;ratioP2;P2;SDS_P1;SDS_P2;PMS_P1;PMS_P2;Temp;Humidity;BMP_temperature;BMP_pressure;BME280_temperature;BME280_humidity;BME280_pressure;Samples;Min_cycle;Max_cycle;Signal;HPM_P1;HPM_P2
2022/06/10 00:00:42;;;;;;;0.30;0.30;;;12.40;99.90;;;;;;5094021;28;20079;-73
2022/06/10 00:03:09;;;;;;;0.35;0.35;;;12.40;99.90;;;;;;5093697;28;20044;-76
2022/06/10 00:05:36;;;;;;;0.40;0.40;;;12.40;99.90;;;;;;5093740;28;20066;-74
2022/06/10 00:08:06;;;;;;;;;;;12.30;99.90;;;;;;5094791;28;20051;-76
2022/06/10 00:10:33;;;;;;;0.30;0.30;;;12.20;99.90;;;;;;5093805;28;20394;-76
2022/06/10 00:12:58;;;;;;;0.40;0.40;;;12.20;99.90;;;;;;5093535;28;20472;-76
2022/06/10 00:15:24;;;;;;;0.40;0.40;;;12.20;99.90;;;;;;5094189;28;20097;-75
2022/06/10 00:17:50;;;;;;;0.40;0.40;;;12.20;99.90;;;;;;5093636;28;20074;-76
2022/06/10 00:20:19;;;;;;;0.40;0.40;;;12.20;99.90;;;;;;5093684;28;20052;-73
2022/06/10 00:22:45;;;;;;;0.30;0.30;;;12.20;99.90;;;;;;5093830;28;20076;-74
2022/06/10 00:25:11;;;;;;;0.40;0.40;;;12.20;99.90;;;;;;5094130;28;20059;-73
2022/06/10 00:27:36;;;;;;;0.40;0.40;;;12.20;99.90;;;;;;5097834;28;20044;-75
2022/06/10 00:30:03;;;;;;;0.32;0.32;;;12.10;99.90;;;;;;5098312;28;20361;-78
2022/06/10 00:32:29;;;;;;;0.40;0.40;;;12.10;99.90;;;;;;5097538;28;20050;-75
2022/06/10 00:34:54;;;;;;;0.30;0.30;;;12.10;99.90;;;;;;5097228;28;20040;-78
2022/06/10 00:37:20;;;;;;;0.30;0.30;;;12.10;99.90;;;;;;5097577;28;20052;-74
2022/06/10 00:39:45;;;;;;;0.40;0.40;;;12.10;99.90;;;;;;5097426;28;20472;-77
2022/06/10 00:42:12;;;;;;;0.40;0.40;;;12.30;99.90;;;;;;5097742;28;20097;-74
2022/06/10 00:44:44;;;;;;;0.30;0.30;;;12.40;99.90;;;;;;5097410;28;20054;-76
2022/06/10 00:47:17;;;;;;;0.30;0.30;;;12.40;99.90;;;;;;5097522;28;20051;-77
2022/06/10 00:50:12;;;;;;;0.30;0.30;;;12.00;99.90;;;;;;5097197;28;20048;-76
2022/06/10 00:52:44;;;;;;;0.38;0.38;;;12.00;99.90;;;;;;5093395;28;20079;-74
2022/06/10 00:55:09;;;;;;;0.40;0.40;;;12.00;99.90;;;;;;5097407;28;20059;-77
2022/06/10 00:57:41;;;;;;;0.40;0.40;;;12.00;99.90;;;;;;5097252;28;20036;-75
2022/06/10 01:00:14;;;;;;;0.40;0.40;;;11.90;99.90;;;;;;5097135;28;20067;-75
2022/06/10 01:02:40;;;;;;;0.30;0.30;;;11.90;99.90;;;;;;5097301;28;20055;-76
2022/06/10 01:05:15;;;;;;;0.40;0.40;;;12.10;99.90;;;;;;5097090;28;20532;-74
2022/06/10 01:07:47;;;;;;;0.40;0.40;;;11.90;99.90;;;;;;5097080;28;20319;-77
2022/06/10 01:10:16;;;;;;;0.40;0.40;;;12.20;99.90;;;;;;5097105;28;20044;-78
2022/06/10 01:12:45;;;;;;;0.40;0.40;;;11.80;99.90;;;;;;5097593;28;20048;-77
2022/06/10 01:15:31;;;;;;;0.57;0.50;;;11.80;99.90;;;;;;5097340;28;20052;-77
2022/06/10 01:18:21;;;;;;;0.40;0.40;;;11.70;99.90;;;;;;5096887;28;20051;-75
2022/06/10 01:21:28;;;;;;;0.40;0.40;;;11.70;99.90;;;;;;5096708;28;20046;-76
2022/06/10 01:24:26;;;;;;;0.40;0.40;;;11.70;99.90;;;;;;5096916;28;20085;-73
2022/06/10 01:30:13;;;;;;;0.40;0.40;;;11.60;99.90;;;;;;5096631;28;20505;-76
2022/06/10 01:32:38;;;;;;;0.40;0.40;;;11.60;99.90;;;;;;5096628;28;20051;-76
2022/06/10 01:35:34;;;;;;;0.52;0.52;;;11.60;99.90;;;;;;5096568;28;20040;-75
2022/06/10 01:38:11;;;;;;;0.65;0.65;;;11.50;99.90;;;;;;5096680;28;20051;-73
2022/06/10 01:40:39;;;;;;;0.30;0.30;;;11.50;99.90;;;;;;5096770;28;20392;-76
2022/06/10 01:43:25;;;;;;;0.40;0.40;;;11.50;99.90;;;;;;5096401;28;20052;-77
2022/06/10 01:46:20;;;;;;;0.35;0.35;;;11.50;99.90;;;;;;5096610;28;20047;-77
2022/06/10 01:48:50;;;;;;;0.40;0.40;;;11.50;99.90;;;;;;5096765;28;20400;-74
2022/06/10 01:51:19;;;;;;;0.60;0.60;;;11.70;99.90;;;;;;5096900;28;20048;-76
2022/06/10 01:54:03;;;;;;;0.40;0.40;;;11.50;99.90;;;;;;5096172;28;20047;-77
2022/06/10 01:56:35;;;;;;;0.30;0.30;;;11.60;99.90;;;;;;5096137;28;20121;-75
2022/06/10 01:59:26;;;;;;;0.40;0.40;;;11.50;99.90;;;;;;5096598;28;20079;-75
2022/06/10 02:02:04;;;;;;;0.40;0.40;;;11.50;99.90;;;;;;5096417;28;20048;-77
2022/06/10 02:04:35;;;;;;;0.40;0.40;;;11.50;99.90;;;;;;5096139;28;20083;-76
2022/06/10 02:07:06;;;;;;;0.40;0.40;;;11.50;99.90;;;;;;5095873;28;20506;-76
2022/06/10 02:09:39;;;;;;;0.40;0.40;;;11.50;99.90;;;;;;5095878;28;20058;-75
2022/06/10 02:12:12;;;;;;;0.40;0.40;;;11.50;99.90;;;;;;5096221;28;20044;-74
2022/06/10 02:14:47;;;;;;;0.40;0.40;;;11.50;99.90;;;;;;5095883;28;20060;-75
2022/06/10 02:17:15;;;;;;;0.40;0.40;;;11.60;99.90;;;;;;5095427;28;20539;-74
2022/06/10 02:19:45;;;;;;;0.40;0.40;;;11.40;99.90;;;;;;5095360;28;20147;-78
2022/06/10 02:22:15;;;;;;;0.40;0.40;;;11.50;99.90;;;;;;5096038;28;20047;-75
2022/06/10 02:24:46;;;;;;;0.40;0.40;;;11.40;99.90;;;;;;5095906;28;20052;-76
2022/06/10 02:27:20;;;;;;;0.40;0.40;;;11.80;99.90;;;;;;5095619;28;20047;-76
2022/06/10 02:30:08;;;;;;;0.40;0.40;;;11.40;99.90;;;;;;5095736;28;20055;-77
2022/06/10 02:32:35;;;;;;;0.40;0.40;;;11.40;99.90;;;;;;5095978;28;20040;-75
2022/06/10 02:35:01;;;;;;;;;;;11.40;99.90;;;;;;5096131;28;20032;-77
2022/06/10 02:37:51;;;;;;;0.40;0.40;;;11.40;99.90;;;;;;5095384;28;19927;-76
2022/06/10 02:40:30;;;;;;;0.40;0.40;;;11.30;99.90;;;;;;5095283;28;20050;-73
2022/06/10 02:43:22;;;;;;;0.40;0.40;;;11.30;99.90;;;;;;5095125;28;20048;-73
2022/06/10 02:46:08;;;;;;;0.40;0.40;;;11.30;99.90;;;;;;5095377;28;20044;-73
2022/06/10 02:48:34;;;;;;;0.63;0.63;;;11.20;99.90;;;;;;5094218;28;20040;-74
2022/06/10 02:51:00;;;;;;;0.40;0.40;;;11.20;99.90;;;;;;5094807;28;20510;-72
2022/06/10 02:53:27;;;;;;;0.30;0.30;;;11.20;99.90;;;;;;5095003;28;20036;-75
2022/06/10 02:55:53;;;;;;;0.40;0.40;;;11.10;99.90;;;;;;5094959;28;20488;-73
2022/06/10 03:01:30;;;;;;;0.40;0.40;;;11.10;99.90;;;;;;5094824;28;20051;-75
2022/06/10 03:04:32;;;;;;;0.45;0.45;;;11.10;99.90;;;;;;5095064;28;20044;-75
2022/06/10 03:07:16;;;;;;;0.40;0.40;;;11.10;99.90;;;;;;5094735;28;20470;-73
2022/06/10 03:09:56;;;;;;;0.40;0.40;;;11.10;99.90;;;;;;5094691;28;20079;-74
2022/06/10 03:12:26;;;;;;;0.47;0.47;;;11.00;99.90;;;;;;5095131;28;20091;-76
2022/06/10 03:15:23;;;;;;;0.40;0.40;;;11.00;99.90;;;;;;5094769;28;20101;-75
2022/06/10 03:18:15;;;;;;;0.30;0.30;;;11.00;99.90;;;;;;5094589;28;20035;-77
2022/06/10 03:20:46;;;;;;;0.40;0.40;;;11.00;99.90;;;;;;5094589;28;20095;-75
2022/06/10 03:23:42;;;;;;;0.40;0.40;;;11.00;99.90;;;;;;5094653;28;20472;-75
2022/06/10 03:26:27;;;;;;;0.47;0.47;;;11.10;99.90;;;;;;5087783;28;20052;-76
2022/06/10 03:29:00;;;;;;;0.40;0.40;;;11.00;99.90;;;;;;5094593;28;20561;-73
2022/06/10 03:31:34;;;;;;;0.40;0.40;;;11.00;99.90;;;;;;5094820;28;20445;-76
2022/06/10 03:34:15;;;;;;;0.40;0.40;;;11.00;99.90;;;;;;5094106;28;20055;-78
2022/06/10 03:36:42;;;;;;;0.38;0.38;;;11.00;99.90;;;;;;5094635;28;20044;-76
2022/06/10 03:39:09;;;;;;;0.30;0.30;;;11.00;99.90;;;;;;5094173;28;20079;-76
2022/06/10 03:42:03;;;;;;;0.40;0.40;;;11.00;99.90;;;;;;5094389;28;20047;-76
2022/06/10 03:44:29;;;;;;;0.40;0.40;;;11.00;99.90;;;;;;5094464;28;20177;-76
2022/06/10 03:46:57;;;;;;;0.40;0.40;;;11.30;99.90;;;;;;5094185;28;20040;-77
2022/06/10 03:49:29;;;;;;;0.40;0.40;;;11.00;99.90;;;;;;5094144;28;20040;-73
2022/06/10 03:51:55;;;;;;;0.57;0.57;;;11.00;99.90;;;;;;5094159;28;20047;-74
2022/06/10 03:54:20;;;;;;;0.40;0.40;;;11.00;99.90;;;;;;5094088;28;20048;-74
2022/06/10 03:56:47;;;;;;;0.40;0.40;;;11.10;99.90;;;;;;5094274;28;20124;-73
2022/06/10 03:59:12;;;;;;;0.40;0.40;;;11.10;99.90;;;;;;5093720;28;20044;-74
2022/06/10 04:01:38;;;;;;;0.40;0.40;;;11.10;99.90;;;;;;5093033;28;20403;-74
2022/06/10 04:04:04;;;;;;;0.40;0.40;;;11.30;99.90;;;;;;5094000;28;20404;-72
2022/06/10 04:06:31;;;;;;;0.40;0.40;;;11.10;99.90;;;;;;5093959;28;20432;-76
2022/06/10 04:08:56;;;;;;;0.40;0.40;;;11.20;99.90;;;;;;5094374;28;20430;-75
2022/06/10 04:11:22;;;;;;;0.30;0.30;;;11.20;99.90;;;;;;5093835;28;20127;-72
2022/06/10 04:13:48;;;;;;;0.40;0.40;;;11.20;99.90;;;;;;5093897;28;20052;-76
2022/06/10 04:16:13;;;;;;;0.40;0.40;;;11.40;99.90;;;;;;5093968;28;20388;-75
2022/06/10 04:18:39;;;;;;;0.38;0.38;;;11.50;99.90;;;;;;5093593;28;20044;-73
2022/06/10 04:21:06;;;;;;;0.75;0.75;;;11.40;99.90;;;;;;5093730;28;20055;-74
2022/06/10 04:23:32;;;;;;;0.40;0.40;;;11.40;99.90;;;;;;5093664;28;20044;-75
2022/06/10 04:25:58;;;;;;;0.40;0.40;;;11.50;99.90;;;;;;5093758;28;20149;-75
2022/06/10 04:28:24;;;;;;;0.40;0.40;;;11.40;99.90;;;;;;5093786;28;20484;-73
2022/06/10 04:30:51;;;;;;;0.30;0.30;;;11.50;99.90;;;;;;5093734;28;20047;-77
2022/06/10 04:33:18;;;;;;;0.40;0.40;;;11.50;99.90;;;;;;5093675;28;20047;-73
2022/06/10 04:35:46;;;;;;;0.35;0.35;;;11.60;99.90;;;;;;5094298;28;20044;-74
2022/06/10 04:38:13;;;;;;;0.40;0.40;;;11.50;99.90;;;;;;5093575;28;20044;-75
2022/06/10 04:40:39;;;;;;;0.40;0.40;;;11.90;99.90;;;;;;5093579;28;20044;-76
2022/06/10 04:43:06;;;;;;;0.40;0.40;;;11.70;99.90;;;;;;5093589;28;20051;-74
2022/06/10 04:45:36;;;;;;;0.40;0.40;;;11.80;99.90;;;;;;5093675;28;20387;-76
2022/06/10 04:48:02;;;;;;;0.40;0.40;;;11.90;99.90;;;;;;5093608;28;20054;-75
2022/06/10 04:50:28;;;;;;;0.40;0.40;;;12.00;99.90;;;;;;5093554;28;20048;-75
2022/06/10 04:52:55;;;;;;;0.40;0.40;;;12.00;99.90;;;;;;5093269;28;20549;-74
2022/06/10 04:55:21;;;;;;;0.57;0.57;;;12.10;99.90;;;;;;5093780;28;20044;-77
2022/06/10 04:57:47;;;;;;;0.55;0.55;;;12.20;99.90;;;;;;5093239;28;20523;-73
2022/06/10 05:00:23;;;;;;;0.40;0.40;;;12.20;99.90;;;;;;5093393;28;20046;-73
2022/06/10 05:02:48;;;;;;;0.40;0.40;;;12.30;99.90;;;;;;5093981;28;20063;-72
2022/06/10 05:05:14;;;;;;;0.40;0.40;;;12.40;99.90;;;;;;5093458;28;20388;-77
2022/06/10 05:07:40;;;;;;;0.95;0.65;;;12.40;99.90;;;;;;5093370;28;20125;-72
2022/06/10 05:10:06;;;;;;;0.40;0.40;;;12.50;99.90;;;;;;5093363;28;20048;-73
2022/06/10 05:12:32;;;;;;;0.40;0.40;;;12.60;99.90;;;;;;5095530;28;20040;-76
2022/06/10 05:14:58;;;;;;;0.40;0.40;;;12.60;99.90;;;;;;5096840;28;20048;-73
2022/06/10 05:17:23;;;;;;;0.40;0.40;;;12.80;99.90;;;;;;5096495;28;20147;-76
2022/06/10 05:19:49;;;;;;;0.40;0.40;;;12.80;99.90;;;;;;5096763;28;20042;-76
2022/06/10 05:22:16;;;;;;;0.40;0.40;;;13.00;99.90;;;;;;5096724;28;20410;-75
2022/06/10 05:24:42;;;;;;;0.40;0.40;;;13.20;99.90;;;;;;5096835;28;20048;-77
2022/06/10 05:27:09;;;;;;;0.50;0.50;;;13.60;99.90;;;;;;5096669;28;20096;-76
2022/06/10 05:29:35;;;;;;;0.30;0.30;;;13.90;99.90;;;;;;5096542;28;20063;-78
2022/06/10 05:32:00;;;;;;;0.80;0.80;;;14.30;99.90;;;;;;5096530;28;20048;-73
2022/06/10 05:34:44;;;;;;;0.30;0.30;;;14.80;99.90;;;;;;5096548;28;20289;-74
2022/06/10 05:37:11;;;;;;;0.32;0.32;;;15.20;99.90;;;;;;5096916;28;20044;-78
2022/06/10 05:39:37;;;;;;;0.30;0.30;;;15.70;99.90;;;;;;5096440;28;20047;-74
2022/06/10 05:42:06;;;;;;;0.30;0.30;;;16.20;99.90;;;;;;5096288;28;20480;-77
2022/06/10 05:44:36;;;;;;;0.30;0.30;;;16.60;99.90;;;;;;5096364;28;20119;-75
2022/06/10 05:47:03;;;;;;;0.30;0.30;;;17.00;99.90;;;;;;5096678;28;20055;-75
2022/06/10 05:49:29;;;;;;;0.45;0.45;;;17.30;99.90;;;;;;5095917;28;20510;-73
2022/06/10 05:51:56;;;;;;;0.30;0.30;;;17.50;99.90;;;;;;5096048;28;20052;-79
2022/06/10 05:54:22;;;;;;;0.30;0.30;;;17.50;99.90;;;;;;5096244;28;20040;-75
2022/06/10 05:56:48;;;;;;;0.30;0.30;;;17.30;99.90;;;;;;5096190;28;20047;-77
2022/06/10 05:59:14;;;;;;;0.30;0.30;;;17.30;99.90;;;;;;5096131;28;20448;-78
2022/06/10 06:01:40;;;;;;;0.30;0.30;;;17.10;99.90;;;;;;5096430;28;20044;-78
2022/06/10 06:04:06;;;;;;;0.30;0.30;;;17.00;99.90;;;;;;5095977;28;20075;-75
2022/06/10 06:06:32;;;;;;;0.50;0.50;;;17.00;99.90;;;;;;5096136;28;20086;-75
2022/06/10 06:08:57;;;;;;;0.30;0.30;;;16.70;99.90;;;;;;5095831;28;20036;-74
2022/06/10 06:11:23;;;;;;;0.30;0.30;;;16.60;99.90;;;;;;5095624;28;20032;-77
2022/06/10 06:13:48;;;;;;;0.30;0.30;;;16.50;99.90;;;;;;5095366;28;20080;-77
2022/06/10 06:16:17;;;;;;;0.50;0.50;;;16.50;99.90;;;;;;5095760;28;20066;-76
2022/06/10 06:18:43;;;;;;;0.30;0.30;;;16.30;99.90;;;;;;5095515;28;20036;-74
2022/06/10 06:21:09;;;;;;;0.30;0.30;;;16.20;99.90;;;;;;5095528;28;20045;-73
2022/06/10 06:23:35;;;;;;;0.30;0.30;;;16.20;99.90;;;;;;5094710;28;20135;-75
2022/06/10 06:26:00;;;;;;;0.30;0.30;;;16.20;99.90;;;;;;5095408;28;20086;-76
2022/06/10 06:28:27;;;;;;;0.40;0.40;;;16.20;99.90;;;;;;5095455;28;20043;-77
2022/06/10 06:30:53;;;;;;;0.30;0.30;;;16.20;99.90;;;;;;5095310;28;20096;-74
2022/06/10 06:33:19;;;;;;;0.50;0.50;;;16.20;99.90;;;;;;5095364;28;20052;-71
2022/06/10 06:35:49;;;;;;;0.20;0.20;;;16.20;99.90;;;;;;5095370;28;20471;-77
2022/06/10 06:38:16;;;;;;;0.30;0.30;;;16.20;99.90;;;;;;5095310;28;20050;-75
2022/06/10 06:40:42;;;;;;;0.40;0.40;;;16.20;99.90;;;;;;5095294;28;20040;-74
2022/06/10 06:43:11;;;;;;;;;;;16.20;99.90;;;;;;5096022;28;20691;-77
2022/06/10 06:45:38;;;;;;;0.40;0.40;;;16.10;99.90;;;;;;5095217;28;20351;-77
2022/06/10 06:48:07;;;;;;;;;;;16.00;99.90;;;;;;5095422;28;20079;-76
2022/06/10 06:50:34;;;;;;;0.30;0.30;;;15.90;99.90;;;;;;5095091;28;20017;-75
2022/06/10 06:53:00;;;;;;;0.40;0.40;;;15.80;99.90;;;;;;5094990;28;20048;-77
2022/06/10 06:55:25;;;;;;;0.53;0.53;;;15.90;99.90;;;;;;5094573;28;20054;-76
2022/06/10 06:57:51;;;;;;;0.30;0.30;;;15.90;99.90;;;;;;5095010;28;20044;-73
2022/06/10 07:00:18;;;;;;;0.30;0.30;;;15.90;99.90;;;;;;5095107;28;20062;-77
2022/06/10 07:02:43;;;;;;;0.30;0.30;;;16.10;99.90;;;;;;5094948;28;20040;-76
2022/06/10 07:05:11;;;;;;;0.20;0.20;;;16.20;99.90;;;;;;5094878;28;20038;-74
2022/06/10 07:07:36;;;;;;;0.50;0.47;;;16.30;99.90;;;;;;5094640;28;20048;-75
2022/06/10 07:10:03;;;;;;;0.40;0.40;;;16.30;99.90;;;;;;5094695;28;20040;-75
2022/06/10 07:12:28;;;;;;;0.40;0.40;;;16.30;99.90;;;;;;5094549;28;20083;-75
2022/06/10 07:14:54;;;;;;;0.40;0.40;;;16.30;99.90;;;;;;5094378;28;20086;-78
2022/06/10 07:17:20;;;;;;;0.40;0.40;;;16.40;99.90;;;;;;5094486;28;20073;-76
2022/06/10 07:19:48;;;;;;;0.30;0.30;;;16.40;99.90;;;;;;5094494;28;20107;-79
2022/06/10 07:22:15;;;;;;;0.47;0.47;;;16.30;99.90;;;;;;5094515;28;20044;-74
2022/06/10 07:24:41;;;;;;;0.40;0.40;;;16.30;99.90;;;;;;5094456;28;20472;-78
2022/06/10 07:27:07;;;;;;;0.40;0.40;;;16.30;99.90;;;;;;5094844;28;20044;-75
2022/06/10 07:29:33;;;;;;;0.37;0.37;;;16.30;99.90;;;;;;5094379;28;20048;-74
2022/06/10 07:31:59;;;;;;;0.30;0.30;;;16.20;99.90;;;;;;5094323;28;20503;-76
2022/06/10 07:34:24;;;;;;;0.60;0.60;;;16.40;99.90;;;;;;5094035;28;20039;-76
2022/06/10 07:36:50;;;;;;;0.30;0.30;;;16.40;99.90;;;;;;5093963;28;20054;-74
2022/06/10 07:39:16;;;;;;;0.30;0.30;;;16.60;99.90;;;;;;5094224;28;20145;-77
2022/06/10 07:41:57;;;;;;;0.87;0.50;;;16.70;99.90;;;;;;5093991;28;20041;-79
2022/06/10 07:44:23;;;;;;;0.30;0.30;;;16.80;99.90;;;;;;5094271;28;20134;-75
2022/06/10 07:46:51;;;;;;;5.20;1.45;;;16.80;99.90;;;;;;5094229;28;20048;-75
2022/06/10 07:49:17;;;;;;;0.30;0.30;;;16.70;99.90;;;;;;5094311;28;20122;-77
2022/06/10 07:51:42;;;;;;;0.30;0.30;;;16.70;99.90;;;;;;5094297;28;20126;-76
2022/06/10 07:54:08;;;;;;;0.30;0.30;;;16.80;99.90;;;;;;5094010;28;20036;-77
2022/06/10 07:56:34;;;;;;;0.73;0.73;;;16.90;99.90;;;;;;5094127;28;20048;-76
2022/06/10 07:59:00;;;;;;;0.55;0.43;;;16.90;99.90;;;;;;5094196;28;20044;-74
2022/06/10 08:01:28;;;;;;;0.40;0.40;;;16.90;99.90;;;;;;5092815;28;20047;-73
2022/06/10 08:03:54;;;;;;;0.40;0.40;;;17.20;99.90;;;;;;5094054;28;20127;-76
2022/06/10 08:06:23;;;;;;;0.50;0.50;;;17.30;99.90;;;;;;5093971;28;20496;-75
2022/06/10 08:08:49;;;;;;;0.38;0.38;;;17.50;99.90;;;;;;5093952;28;20263;-76
2022/06/10 08:11:15;;;;;;;0.47;0.40;;;17.70;99.90;;;;;;5094608;28;20131;-72
2022/06/10 08:13:41;;;;;;;1.80;0.93;;;17.80;99.90;;;;;;5093847;28;20472;-73
2022/06/10 08:16:07;;;;;;;0.30;0.30;;;17.90;99.90;;;;;;5094214;28;20044;-76
2022/06/10 08:18:33;;;;;;;0.50;0.50;;;18.00;99.90;;;;;;5094080;28;20426;-76
2022/06/10 08:23:44;;;;;;;0.35;0.35;;;17.90;99.90;;;;;;5093786;28;20060;-76
2022/06/10 08:26:11;;;;;;;0.30;0.30;;;17.90;99.90;;;;;;5093780;28;20539;-75
2022/06/10 08:28:40;;;;;;;0.40;0.40;;;17.90;99.90;;;;;;5093772;28;20044;-76
2022/06/10 08:31:05;;;;;;;0.30;0.30;;;18.00;99.90;;;;;;5093700;28;20479;-73
2022/06/10 08:33:31;;;;;;;0.30;0.30;;;17.90;99.90;;;;;;5093764;28;20052;-75
2022/06/10 08:35:58;;;;;;;0.43;0.43;;;17.80;99.90;;;;;;5093604;28;20052;-76
2022/06/10 08:38:24;;;;;;;0.30;0.30;;;17.90;99.90;;;;;;5093505;28;20083;-77
2022/06/10 08:41:01;;;;;;;0.30;0.30;;;18.00;99.90;;;;;;5092647;28;20087;-77
2022/06/10 08:43:39;;;;;;;0.40;0.40;;;18.00;99.90;;;;;;5093895;28;20396;-76
2022/06/10 08:46:42;;;;;;;0.30;0.30;;;18.20;99.90;;;;;;5093748;28;20048;-74
2022/06/10 08:49:31;;;;;;;0.30;0.30;;;18.30;99.90;;;;;;5079819;28;20055;-74
2022/06/10 08:52:04;;;;;;;0.30;0.30;;;18.30;99.90;;;;;;5097564;28;20044;-77
2022/06/10 08:54:51;;;;;;;0.30;0.30;;;18.50;99.90;;;;;;5097443;28;20094;-75
2022/06/10 08:57:32;;;;;;;0.38;0.38;;;18.40;99.90;;;;;;5097399;28;20083;-76
2022/06/10 08:59:59;;;;;;;1.30;0.30;;;18.30;99.90;;;;;;5097271;28;20044;-76
2022/06/10 09:03:03;;;;;;;0.30;0.30;;;18.40;99.90;;;;;;5097268;28;20036;-74
2022/06/10 09:05:40;;;;;;;0.30;0.30;;;18.40;99.90;;;;;;5097182;28;20043;-75
2022/06/10 09:08:12;;;;;;;0.63;0.63;;;18.40;99.90;;;;;;5096474;28;20369;-77
2022/06/10 09:10:42;;;;;;;0.30;0.30;;;18.30;99.90;;;;;;5097034;28;20499;-77
2022/06/10 09:13:14;;;;;;;0.20;0.20;;;18.50;99.90;;;;;;5097007;28;20055;-78
2022/06/10 09:16:04;;;;;;;0.52;0.52;;;18.60;99.90;;;;;;5096953;28;20040;-77
2022/06/10 09:18:42;;;;;;;1.98;0.85;;;18.60;99.90;;;;;;5096913;28;20063;-77
2022/06/10 09:21:34;;;;;;;0.68;0.38;;;18.70;99.90;;;;;;5096973;28;20046;-76
2022/06/10 09:24:07;;;;;;;0.40;0.40;;;18.60;99.90;;;;;;5096738;28;20044;-72
2022/06/10 09:26:53;;;;;;;0.30;0.30;;;18.70;99.90;;;;;;5097253;28;20043;-78
2022/06/10 09:29:19;;;;;;;0.30;0.30;;;18.70;99.90;;;;;;5096675;28;20178;-78
2022/06/10 09:32:11;;;;;;;0.30;0.30;;;18.50;99.90;;;;;;5097041;28;20087;-77
2022/06/10 09:34:55;;;;;;;0.30;0.30;;;18.40;99.90;;;;;;5092758;28;20063;-77
2022/06/10 09:37:39;;;;;;;0.30;0.30;;;18.40;99.90;;;;;;5096689;28;20048;-77
2022/06/10 09:43:08;;;;;;;0.20;0.20;;;18.40;99.90;;;;;;5096319;28;20551;-78
2022/06/10 09:45:45;;;;;;;1.17;0.70;;;18.30;99.90;;;;;;5097525;28;20556;-78
2022/06/10 09:48:57;;;;;;;0.30;0.30;;;18.40;99.90;;;;;;5096921;28;20054;-75
2022/06/10 09:51:44;;;;;;;0.75;0.60;;;18.50;99.90;;;;;;5083327;28;20050;-75
2022/06/10 09:54:29;;;;;;;0.38;0.38;;;18.40;99.90;;;;;;5097324;28;20377;-76
2022/06/10 09:57:20;;;;;;;0.30;0.30;;;18.40;99.90;;;;;;5096758;28;20040;-75
2022/06/10 10:00:15;;;;;;;0.20;0.20;;;18.40;99.90;;;;;;5097141;28;20126;-77
2022/06/10 10:02:56;;;;;;;0.50;0.50;;;18.40;99.90;;;;;;5097277;28;20052;-74
2022/06/10 10:05:44;;;;;;;0.30;0.30;;;18.50;99.90;;;;;;5097073;28;20051;-76
2022/06/10 10:08:16;;;;;;;0.45;0.45;;;18.50;99.90;;;;;;5096842;28;20048;-75
2022/06/10 10:11:01;;;;;;;0.40;0.40;;;18.60;99.90;;;;;;5097228;28;20047;-77
2022/06/10 10:13:38;;;;;;;0.40;0.40;;;18.60;99.90;;;;;;5096939;28;20058;-75
2022/06/10 10:16:13;;;;;;;0.30;0.30;;;18.50;99.90;;;;;;5096828;28;20048;-76
2022/06/10 10:19:18;;;;;;;0.88;0.82;;;18.50;99.90;;;;;;5096791;28;20093;-75
2022/06/10 10:21:48;;;;;;;0.30;0.30;;;18.40;99.90;;;;;;5095818;28;20431;-76
2022/06/10 10:24:17;;;;;;;0.30;0.30;;;18.50;99.90;;;;;;5096047;28;20051;-78
2022/06/10 10:26:44;;;;;;;0.30;0.30;;;18.70;99.90;;;;;;5095904;28;20051;-77
2022/06/10 10:29:21;;;;;;;0.30;0.30;;;19.00;99.90;;;;;;5095907;28;20091;-76
2022/06/10 10:31:54;;;;;;;;;;;19.30;99.90;;;;;;5096385;28;20040;-75
2022/06/10 10:34:24;;;;;;;0.30;0.30;;;19.60;99.90;;;;;;5095437;28;19924;-75
2022/06/10 10:36:53;;;;;;;0.40;0.40;;;19.90;99.90;;;;;;5096188;28;20052;-73
2022/06/10 10:39:25;;;;;;;0.30;0.30;;;20.20;99.90;;;;;;5095169;28;20118;-76
2022/06/10 10:41:53;;;;;;;0.30;0.30;;;20.60;99.90;;;;;;5096258;28;20047;-75
2022/06/10 10:44:49;;;;;;;0.30;0.30;;;20.80;99.90;;;;;;5095559;28;20517;-76
2022/06/10 10:47:25;;;;;;;1.10;0.57;;;20.90;99.90;;;;;;5095562;28;20067;-74
2022/06/10 10:49:56;;;;;;;0.40;0.40;;;21.00;99.90;;;;;;5095845;28;20040;-74
2022/06/10 10:52:44;;;;;;;0.30;0.30;;;21.20;99.90;;;;;;5095297;28;20040;-76
2022/06/10 10:55:12;;;;;;;1.25;0.40;;;21.50;99.90;;;;;;5095420;28;20415;-74
2022/06/10 10:57:45;;;;;;;0.22;0.22;;;21.60;99.90;;;;;;5095173;28;20044;-72
2022/06/10 11:00:10;;;;;;;0.30;0.30;;;21.60;99.90;;;;;;5094856;28;20051;-76
2022/06/10 11:02:55;;;;;;;0.57;0.57;;;21.70;99.90;;;;;;5094903;28;20040;-76
2022/06/10 11:05:32;;;;;;;0.40;0.40;;;21.70;99.90;;;;;;5094724;28;20044;-74
2022/06/10 11:08:36;;;;;;;0.30;0.30;;;21.60;99.90;;;;;;5094825;28;20052;-75
2022/06/10 11:11:05;;;;;;;0.30;0.30;;;21.80;99.90;;;;;;5094087;28;20519;-74
2022/06/10 11:13:47;;;;;;;0.40;0.40;;;21.90;99.90;;;;;;5094900;28;20056;-73
2022/06/10 11:16:29;;;;;;;0.30;0.30;;;21.70;99.90;;;;;;5094713;28;20044;-77
2022/06/10 11:19:11;;;;;;;1.17;0.60;;;21.70;99.90;;;;;;5094355;28;20545;-77
2022/06/10 11:22:15;;;;;;;0.20;0.20;;;21.80;99.90;;;;;;5094526;28;20047;-76
2022/06/10 11:24:45;;;;;;;0.52;0.52;;;21.90;99.90;;;;;;5093662;28;20068;-74
2022/06/10 11:27:39;;;;;;;0.30;0.30;;;22.20;99.90;;;;;;5094419;28;20079;-77
2022/06/10 11:30:11;;;;;;;0.30;0.30;;;22.30;99.90;;;;;;5094583;28;20105;-74
2022/06/10 11:32:42;;;;;;;0.30;0.30;;;22.30;99.90;;;;;;5094296;28;20053;-74
2022/06/10 11:35:35;;;;;;;0.30;0.30;;;22.20;99.90;;;;;;5094059;28;20127;-75
2022/06/10 11:38:21;;;;;;;0.30;0.30;;;22.10;99.90;;;;;;5094217;28;20056;-73
2022/06/10 11:40:46;;;;;;;0.40;0.40;;;22.30;99.90;;;;;;5094184;28;20051;-74
2022/06/10 11:43:37;;;;;;;0.30;0.30;;;22.60;99.90;;;;;;5093093;28;20434;-73
2022/06/10 11:46:18;;;;;;;0.30;0.30;;;23.10;99.90;;;;;;5094199;28;20388;-77
2022/06/10 11:49:06;;;;;;;0.30;0.30;;;23.40;99.90;;;;;;5094057;28;20048;-76
2022/06/10 11:51:51;;;;;;;0.30;0.30;;;23.70;99.90;;;;;;5094083;28;20040;-75
2022/06/10 11:54:34;;;;;;;0.68;0.68;;;23.80;99.90;;;;;;5093950;28;20078;-74
2022/06/10 12:00:08;;;;;;;0.50;0.50;;;23.80;99.90;;;;;;5093729;28;20091;-76
2022/06/10 12:02:43;;;;;;;0.30;0.30;;;23.70;99.90;;;;;;5093967;28;20036;-76
2022/06/10 12:05:14;;;;;;;3.03;0.80;;;23.60;99.90;;;;;;5093968;28;20090;-80
2022/06/10 12:07:46;;;;;;;0.30;0.30;;;23.40;99.90;;;;;;5094229;28;20043;-76
2022/06/10 12:10:19;;;;;;;0.40;0.40;;;23.10;99.90;;;;;;5093814;28;20067;-77
2022/06/10 12:12:47;;;;;;;0.57;0.57;;;23.10;99.90;;;;;;5093757;28;20044;-76
2022/06/10 12:15:19;;;;;;;0.20;0.20;;;23.00;99.90;;;;;;5093993;28;20102;-77
2022/06/10 12:17:47;;;;;;;0.30;0.30;;;22.90;99.90;;;;;;5094422;28;20052;-77
2022/06/10 12:20:41;;;;;;;0.30;0.30;;;22.80;99.90;;;;;;5094029;28;20093;-76
2022/06/10 12:23:35;;;;;;;0.50;0.50;;;22.70;99.90;;;;;;5096818;28;20050;-75
2022/06/10 12:26:12;;;;;;;0.45;0.45;;;22.50;99.90;;;;;;5094201;28;20063;-76
2022/06/10 12:28:48;;;;;;;0.20;0.20;;;22.30;99.90;;;;;;5097749;28;20039;-76
2022/06/10 12:31:36;;;;;;;0.30;0.30;;;22.30;99.90;;;;;;5097704;28;20055;-75
2022/06/10 12:34:23;;;;;;;0.20;0.20;;;22.20;99.90;;;;;;5096896;28;20044;-76
2022/06/10 12:37:33;;;;;;;0.30;0.30;;;22.10;99.90;;;;;;5098110;28;20047;-73
2022/06/10 12:40:06;;;;;;;0.20;0.20;;;22.20;99.90;;;;;;5097692;28;20049;-77
2022/06/10 12:42:42;;;;;;;0.30;0.30;;;22.40;99.90;;;;;;5097481;28;20048;-75
2022/06/10 12:45:47;;;;;;;0.40;0.40;;;22.50;99.90;;;;;;5098021;28;20048;-76
2022/06/10 12:48:20;;;;;;;0.65;0.65;;;22.70;99.90;;;;;;5095699;28;20067;-73
2022/06/10 12:51:01;;;;;;;0.20;0.20;;;22.80;99.90;;;;;;5097467;28;20040;-73
2022/06/10 12:53:45;;;;;;;0.30;0.30;;;22.80;99.90;;;;;;5097653;28;20094;-75
2022/06/10 12:56:26;;;;;;;0.30;0.30;;;22.70;99.90;;;;;;5097603;28;20051;-76
2022/06/10 12:59:24;;;;;;;0.60;0.60;;;22.40;99.90;;;;;;5097338;28;20153;-77
2022/06/10 13:01:51;;;;;;;;;;;22.20;99.90;;;;;;5091010;28;20062;-76
2022/06/10 13:04:22;;;;;;;0.30;0.30;;;22.10;99.90;;;;;;5097091;28;20014;-75
2022/06/10 13:06:57;;;;;;;0.82;0.70;;;22.10;99.90;;;;;;5096591;28;20051;-74
2022/06/10 13:09:32;;;;;;;0.30;0.30;;;22.20;99.90;;;;;;5097096;28;20464;-77
2022/06/10 13:12:01;;;;;;;0.38;0.38;;;22.30;99.90;;;;;;5097406;28;20404;-75
2022/06/10 13:14:36;;;;;;;0.30;0.30;;;22.30;99.90;;;;;;5097819;28;20048;-77
2022/06/10 13:17:29;;;;;;;0.95;0.50;;;22.40;99.90;;;;;;5097275;28;20093;-76
2022/06/10 13:19:54;;;;;;;0.40;0.40;;;22.50;99.90;;;;;;5096612;28;20399;-75
2022/06/10 13:22:20;;;;;;;0.77;0.47;;;22.60;99.90;;;;;;5096406;28;20160;-76
2022/06/10 13:24:51;;;;;;;1.33;0.50;;;22.70;99.90;;;;;;5097281;28;20123;-75
2022/06/10 13:27:20;;;;;;;0.38;0.38;;;22.80;99.90;;;;;;5096741;28;20048;-76
2022/06/10 13:29:50;;;;;;;0.85;0.47;;;22.80;99.90;;;;;;5096558;28;20066;-76
2022/06/10 13:32:16;;;;;;;0.30;0.30;;;22.90;99.90;;;;;;5096063;28;20044;-75
2022/06/10 13:34:41;;;;;;;2.70;1.40;;;22.80;99.90;;;;;;5096569;28;20047;-79